• Join FlightAware (Why Join?)
  • Login
  • US Flag 
09:39PM EDT


 

Airport Tracker/Info


-or-


 

Live Flight TrackerFlight Track Log ✈ N1250V ✈ 09-Aug-2013 ✈ KASE - KAPA

Flight Track Log - Related Links

Times and Time Zones

All times are in EDT time to prevent confusion due to time zone crossing. See the N1250V flight status page for this flight to view local times or setup timezone preferences in your user account.

Time Position Orientation Groundspeed Altitude Reporting Facility
EDT Latitude Longitude Course Direction KTS MPH feet Rate Location/Type
03:19PM 39.2831 -106.9675 284° West 174 200 12,800  Level Denver Center
03:20PM 39.3103 -107.0194 304° West 196 226 14,800 1,860 Climbing Denver Center
03:21PM 39.3617 -107.0378 345° North 188 216 16,700 960 Climbing Denver Center
03:22PM 39.4231 -106.9981 27° Northeast 261 300 16,900  Climbing Denver Center
03:23PM 39.3668 -106.5503 104° East  Level FlightAware Approximate
03:23PM 39.4119 -106.9011 98° East 268 308 16,800  Level Denver Center
03:24PM 39.3978 -106.8153 102° East 255 293 16,900  Climbing Denver Center
03:25PM 39.3847 -106.7200 100° East 265 305 16,900  Level Denver Center
03:26PM 39.3708 -106.6211 100° East 277 319 16,900  Level Denver Center
03:27PM 39.3411 -106.5144 110° East 265 305 16,900  Level Denver Center
03:28PM 39.3125 -106.4283 113° Southeast 261 300 16,900  Level Denver Center
03:29PM 39.2761 -106.3494 121° Southeast 257 296 16,900  Level Denver Center
03:30PM 39.2419 -106.2686 119° Southeast 255 293 16,900  Level Denver Center
03:31PM 39.2097 -106.1864 117° Southeast 256 295 16,900  Level Denver Center
03:32PM 39.1644 -106.0967 123° Southeast 252 290 16,900  Level Denver Center
03:33PM 39.1414 -106.0142 110° East 255 293 16,900 -480 Level Denver Center
03:34PM 39.1433 -105.9178 88° East 263 303 16,000 -540 Descending Denver Center
03:35PM 39.1508 -105.8186 84° East 274 315 15,900 -60 Descending Denver Center
03:36PM 39.1561 -105.7133 86° East 293 337 15,900  Level Denver Center
03:37PM 39.1622 -105.6200 85° East 266 306 16,000  Climbing Denver Center
03:39PM 39.1706 -105.4964 85° East 286 329 15,900 -480 Descending Denver Center
03:40PM 39.1758 -105.4069 86° East 260 299 15,100 -420 Descending Denver Center
03:41PM 39.1822 -105.3136 85° East 245 282 15,100  Level Denver Center
03:42PM 39.1869 -105.2122 87° East 276 318 15,100 -600 Level Denver Center
03:43PM 39.1931 -105.1006 86° East 290 334 13,900 -1,500 Descending Denver Center
03:44PM 39.2531 -105.0553 30° Northeast 246 283 12,100 -1,500 Descending Denver Center
03:45PM 39.3119 -105.0183 26° Northeast 237 273 10,900 -1,020 Descending Denver Center
03:46PM 39.3731 -104.9811 25° Northeast 228 262 10,000 -900 Descending Denver Center
03:47PM 39.4350 -104.9817 360° North 222 255 9,100 -840 Descending Denver Center
03:48PM 39.5025 -104.9833 359° North 225 259 8,300 -720 Descending Denver Center
03:49PM 39.5586 -104.9831 360° North 204 235 7,700 -420 Descending Denver Center
03:50PM 39.5906 -104.9422 45° Northeast 170 196 7,500 -420 Descending Denver Center
03:51PM 39.6061 -104.8969 66° East 141 162 6,900 -600 Descending Denver Center
03:52PM 39.6067 -104.8556 89° East 119 137 6,300 -540 Descending Denver Center
03:53PM 39.5781 -104.8508 173° South 106 122 5,800 -540 Descending Denver Center